Time;durP1;ratioP1;P1;durP2;ratioP2;P2;SDS_P1;SDS_P2;PMS_P1;PMS_P2;Temp;Humidity;BMP_temperature;BMP_pressure;BME280_temperature;BME280_humidity;BME280_pressure;Samples;Min_cycle;Max_cycle;Signal;HPM_P1;HPM_P2
2023/12/04 00:01:14;;;;;;;6.40;5.30;;;;;;;-1.58;54.50;94277.53;4902885;29;20856;-79
2023/12/04 00:03:40;;;;;;;9.07;5.22;;;;;;;-1.46;53.97;94291.38;4887914;29;20040;-80
2023/12/04 00:06:06;;;;;;;8.30;5.78;;;;;;;-1.58;54.04;94301.78;4889634;29;20519;-79
2023/12/04 00:08:32;;;;;;;7.40;5.72;;;;;;;-1.68;54.88;94290.31;4886485;29;20037;-76
2023/12/04 00:10:58;;;;;;;7.20;5.50;;;;;;;-1.69;55.70;94284.31;4905494;29;20658;-76
2023/12/04 00:13:23;;;;;;;6.88;5.45;;;;;;;-1.50;55.35;94303.25;4900869;29;20511;-78
2023/12/04 00:15:48;;;;;;;13.77;6.93;;;;;;;-1.50;55.39;94301.44;4888835;29;20035;-78
2023/12/04 00:18:14;;;;;;;8.23;5.75;;;;;;;-1.61;55.02;94276.19;4885597;29;20496;-78
2023/12/04 00:20:41;;;;;;;9.43;5.45;;;;;;;-1.33;54.77;94319.03;4886895;29;20075;-78
2023/12/04 00:23:08;;;;;;;7.88;5.70;;;;;;;-1.72;54.79;94281.38;4900565;29;20044;-78
2023/12/04 00:25:33;;;;;;;7.70;4.95;;;;;;;-1.37;54.00;94326.53;4888948;29;20388;-78
2023/12/04 00:27:58;;;;;;;6.72;5.43;;;;;;;-1.38;53.27;94330.16;4886933;29;20036;-78
2023/12/04 00:30:24;;;;;;;8.43;5.63;;;;;;;-1.41;51.13;94331.41;4887480;29;20040;-78
2023/12/04 00:32:49;;;;;;;6.80;4.97;;;;;;;-1.37;51.00;94331.75;4887504;29;20032;-79
2023/12/04 00:35:15;;;;;;;6.85;5.28;;;;;;;-1.57;52.33;94319.03;4883554;29;20532;-80
2023/12/04 00:37:40;;;;;;;6.95;5.10;;;;;;;-1.52;51.06;94327.00;4884075;29;20441;-78
2023/12/04 00:40:08;;;;;;;7.30;4.90;;;;;;;-1.35;49.95;94331.50;4885148;29;20320;-77
2023/12/04 00:42:33;;;;;;;6.13;4.65;;;;;;;-1.38;50.73;94335.38;4882988;29;20118;-79
2023/12/04 00:44:59;;;;;;;10.00;5.78;;;;;;;-1.56;50.64;94325.06;4885819;29;20052;-78
2023/12/04 00:47:24;;;;;;;7.05;5.20;;;;;;;-1.57;50.51;94345.13;4888589;29;20526;-78
2023/12/04 00:49:50;;;;;;;6.38;4.90;;;;;;;-1.65;51.08;94352.47;4887705;29;20123;-80
2023/12/04 00:52:15;;;;;;;7.97;4.90;;;;;;;-1.58;50.47;94347.94;4887353;29;20056;-79
2023/12/04 00:54:41;;;;;;;7.45;5.03;;;;;;;-1.50;51.15;94351.00;4887993;29;20032;-79
2023/12/04 00:57:08;;;;;;;10.20;6.47;;;;;;;-1.37;51.01;94355.25;4886913;29;20107;-76
2023/12/04 00:59:34;;;;;;;9.02;5.82;;;;;;;-1.36;51.44;94356.81;4886851;29;20028;-78
2023/12/04 01:02:00;;;;;;;9.40;6.03;;;;;;;-1.45;50.61;94348.53;4886724;29;20131;-79
2023/12/04 01:04:26;;;;;;;6.95;5.65;;;;;;;-1.42;50.28;94355.91;4886715;29;20855;-80
2023/12/04 01:06:52;;;;;;;8.48;6.47;;;;;;;-1.49;51.03;94346.59;4887464;29;20044;-78
2023/12/04 01:09:18;;;;;;;8.05;5.78;;;;;;;-1.59;51.71;94346.34;4894254;29;20675;-78
2023/12/04 01:11:43;;;;;;;7.63;6.03;;;;;;;-1.42;51.75;94353.31;4886561;29;20040;-77
2023/12/04 01:14:09;;;;;;;8.63;6.38;;;;;;;-1.14;50.72;94357.84;4881453;29;20044;-76
2023/12/04 01:16:34;;;;;;;8.68;6.00;;;;;;;-1.25;51.30;94353.41;4902549;29;20489;-78
2023/12/04 01:19:00;;;;;;;7.78;5.30;;;;;;;-1.20;51.02;94361.38;4884479;29;20393;-79
2023/12/04 01:21:25;;;;;;;8.50;5.15;;;;;;;-1.87;50.11;94251.31;4889306;29;20045;-79
2023/12/04 01:23:51;;;;;;;6.80;4.95;;;;;;;-1.26;50.11;94357.03;4885073;29;22147;-77
2023/12/04 01:26:16;;;;;;;9.05;6.20;;;;;;;-1.27;50.41;94357.28;4887632;29;20044;-78
2023/12/04 01:28:42;;;;;;;7.32;5.47;;;;;;;-1.30;50.46;94358.53;4885258;29;20057;-78
2023/12/04 01:31:07;;;;;;;9.15;6.32;;;;;;;-1.50;50.92;94355.44;4885158;29;20024;-79
2023/12/04 01:33:33;;;;;;;10.63;7.28;;;;;;;-1.68;51.91;94347.69;4886848;29;20176;-77
2023/12/04 01:35:58;;;;;;;10.73;7.82;;;;;;;-1.58;52.02;94338.31;4884194;29;20596;-78
2023/12/04 01:38:24;;;;;;;11.50;7.05;;;;;;;-1.44;51.96;94364.97;4886290;29;20575;-78
2023/12/04 01:40:49;;;;;;;9.93;6.22;;;;;;;-1.34;51.31;94365.22;4883865;29;20348;-78
2023/12/04 01:43:15;;;;;;;10.43;7.10;;;;;;;-1.58;51.81;94363.59;4884363;29;20027;-78
2023/12/04 01:45:41;;;;;;;9.35;6.72;;;;;;;-1.60;52.30;94376.06;4887892;29;20041;-79
2023/12/04 01:48:08;;;;;;;12.35;7.65;;;;;;;-1.60;52.25;94339.53;4882259;29;20116;-75
2023/12/04 01:50:35;;;;;;;10.00;7.57;;;;;;;-1.53;52.79;94376.75;4886187;29;20341;-79
2023/12/04 01:53:01;;;;;;;10.35;7.43;;;;;;;-1.63;53.47;94360.88;4886669;29;20071;-78
2023/12/04 01:55:29;;;;;;;10.38;7.45;;;;;;;-1.54;53.67;94380.38;4883281;29;20120;-79
2023/12/04 01:57:56;;;;;;;11.07;8.15;;;;;;;-1.52;52.81;94352.28;4901181;29;20088;-79
2023/12/04 02:00:21;;;;;;;12.02;7.22;;;;;;;-1.36;52.94;94361.25;4885536;29;20143;-79
2023/12/04 02:02:47;;;;;;;11.88;8.48;;;;;;;-1.65;53.69;94355.88;4884529;29;20552;-79
2023/12/04 02:05:14;;;;;;;13.40;8.68;;;;;;;-1.75;53.63;94367.88;4876766;29;20472;-78
2023/12/04 02:07:41;;;;;;;9.93;6.43;;;;;;;-1.64;51.88;94386.16;4884963;29;20024;-78
2023/12/04 02:10:06;;;;;;;7.88;5.80;;;;;;;-1.68;52.07;94364.16;4887035;29;20083;-75
2023/12/04 02:12:32;;;;;;;10.52;7.15;;;;;;;-1.71;51.88;94371.63;4873256;29;20041;-78
2023/12/04 02:14:58;;;;;;;9.50;6.57;;;;;;;-1.90;52.56;94360.47;4868618;29;20048;-79
2023/12/04 02:17:25;;;;;;;8.63;6.72;;;;;;;-1.91;53.04;94383.13;4867105;29;20037;-79
2023/12/04 02:19:51;;;;;;;11.25;7.85;;;;;;;-2.05;53.47;94380.94;4865918;29;21067;-78
2023/12/04 02:22:19;;;;;;;9.23;7.40;;;;;;;-1.94;52.70;94388.78;4870376;29;20108;-79
2023/12/04 02:24:46;;;;;;;11.10;8.70;;;;;;;-2.15;53.49;94391.88;4866102;29;20041;-79
2023/12/04 02:27:37;;;;;;;11.55;8.13;;;;;;;-2.16;54.24;94395.50;4866289;29;20116;-79
2023/12/04 02:30:07;;;;;;;11.38;7.72;;;;;;;-2.15;53.44;94386.69;4883016;29;20064;-78
2023/12/04 02:32:38;;;;;;;11.20;6.90;;;;;;;-2.23;52.98;94402.59;4866265;29;20652;-77
2023/12/04 02:35:05;;;;;;;8.32;6.13;;;;;;;-2.20;52.75;94396.97;4866223;29;20041;-79
2023/12/04 02:37:32;;;;;;;8.60;5.53;;;;;;;-2.30;51.65;94381.06;4860225;29;20145;-77
2023/12/04 02:39:58;;;;;;;8.63;5.93;;;;;;;-2.49;51.92;94385.50;4866262;29;20045;-79
2023/12/04 02:42:27;;;;;;;8.63;5.93;;;;;;;-2.37;51.39;94412.38;4868075;29;20104;-77
2023/12/04 02:44:53;;;;;;;7.72;5.45;;;;;;;-2.39;51.12;94405.81;4867367;29;20124;-77
2023/12/04 02:47:18;;;;;;;8.32;5.70;;;;;;;-2.46;51.37;94382.44;4868013;29;20037;-79
2023/12/04 02:49:44;;;;;;;8.30;6.60;;;;;;;-2.68;52.04;94406.53;4867380;29;20025;-79
2023/12/04 02:52:09;;;;;;;10.00;6.53;;;;;;;-2.53;51.98;94404.34;4870004;29;20548;-77
2023/12/04 02:54:35;;;;;;;8.73;5.78;;;;;;;-2.56;51.85;94404.78;4866805;29;20092;-77
2023/12/04 02:57:01;;;;;;;6.55;5.80;;;;;;;-2.62;52.95;94414.25;4865164;29;20508;-77
2023/12/04 02:59:26;;;;;;;9.27;6.47;;;;;;;-2.64;52.42;94392.88;4863936;29;20476;-78
2023/12/04 03:01:52;;;;;;;9.73;6.15;;;;;;;-2.59;52.82;94385.19;4865891;29;20107;-78
2023/12/04 03:04:19;;;;;;;8.20;5.90;;;;;;;-2.35;52.36;94409.56;4867769;29;20113;-77
2023/12/04 03:06:45;;;;;;;8.32;6.10;;;;;;;-2.49;51.20;94374.28;4871765;29;20521;-77
2023/12/04 03:09:11;;;;;;;9.52;5.93;;;;;;;-2.57;51.47;94364.13;4866832;29;20044;-77
2023/12/04 03:11:39;;;;;;;9.55;6.43;;;;;;;-2.53;51.32;94381.69;4873439;29;20504;-80
2023/12/04 03:14:04;;;;;;;8.43;6.90;;;;;;;-2.54;52.15;94400.16;4880999;29;20326;-79
2023/12/04 03:16:30;;;;;;;8.90;6.00;;;;;;;-2.53;52.33;94397.34;4871412;29;20524;-80
2023/12/04 03:18:55;;;;;;;9.70;6.47;;;;;;;-2.53;52.58;94401.75;4884172;29;20036;-78
2023/12/04 03:21:21;;;;;;;7.97;6.15;;;;;;;-2.58;52.10;94388.59;4872478;29;20450;-77
2023/12/04 03:23:46;;;;;;;11.65;7.53;;;;;;;-2.57;52.00;94400.59;4857946;29;20524;-77
2023/12/04 03:26:12;;;;;;;10.15;7.25;;;;;;;-2.47;51.83;94406.09;4859969;29;20132;-76
2023/12/04 03:28:39;;;;;;;10.15;6.28;;;;;;;-2.49;52.04;94405.53;4864725;29;20749;-77
2023/12/04 03:31:04;;;;;;;8.45;5.72;;;;;;;-2.35;50.60;94414.78;4872828;29;20061;-78
2023/12/04 03:33:30;;;;;;;8.95;6.30;;;;;;;-2.90;51.87;94326.25;4869666;29;20165;-80
2023/12/04 03:35:55;;;;;;;9.98;6.75;;;;;;;-2.32;51.89;94416.94;4871570;29;20041;-79
2023/12/04 03:38:21;;;;;;;8.40;6.25;;;;;;;-2.40;52.45;94409.44;4871367;29;20037;-81
2023/12/04 03:40:46;;;;;;;10.13;6.95;;;;;;;-2.48;52.83;94425.31;4873490;29;20121;-79
2023/12/04 03:43:12;;;;;;;10.85;6.68;;;;;;;-2.41;53.06;94421.66;4870230;29;20037;-79
2023/12/04 03:45:37;;;;;;;8.27;6.28;;;;;;;-2.48;52.47;94399.28;4873213;29;20036;-79
2023/12/04 03:48:03;;;;;;;11.35;7.50;;;;;;;-2.66;52.95;94414.91;4869101;29;20429;-78
2023/12/04 03:50:28;;;;;;;10.07;7.13;;;;;;;-2.54;53.29;94415.81;4870676;29;20041;-78
2023/12/04 03:52:54;;;;;;;9.32;6.57;;;;;;;-2.55;53.15;94404.59;4872140;29;20477;-78
2023/12/04 03:55:19;;;;;;;9.73;6.60;;;;;;;-2.44;53.33;94423.91;4867961;29;20031;-77
2023/12/04 03:57:45;;;;;;;8.73;6.80;;;;;;;-2.63;53.51;94404.84;4869906;29;20041;-77
2023/12/04 04:00:11;;;;;;;9.75;6.60;;;;;;;-2.54;53.77;94416.59;4870629;29;20052;-77
2023/12/04 04:02:39;;;;;;;10.73;7.57;;;;;;;-2.57;53.26;94400.59;4868622;29;20891;-77
2023/12/04 04:05:06;;;;;;;8.13;6.20;;;;;;;-2.50;52.91;94432.59;4885622;29;20119;-77
2023/12/04 04:07:31;;;;;;;9.85;7.63;;;;;;;-2.82;53.91;94421.47;4866626;29;20025;-77
2023/12/04 04:09:57;;;;;;;13.90;8.35;;;;;;;-2.84;53.76;94424.31;4868532;29;20041;-78
2023/12/04 04:12:23;;;;;;;9.88;6.80;;;;;;;-2.74;54.04;94426.44;4867931;29;20051;-78
2023/12/04 04:14:48;;;;;;;12.52;7.38;;;;;;;-2.69;53.59;94429.19;4871013;29;20386;-77
2023/12/04 04:17:14;;;;;;;8.75;6.55;;;;;;;-2.69;51.89;94397.94;4879152;29;20060;-77
2023/12/04 04:19:40;;;;;;;9.30;6.85;;;;;;;-2.60;51.72;94429.69;4870502;29;20033;-78
2023/12/04 04:22:07;;;;;;;14.38;6.90;;;;;;;-3.00;52.02;94391.03;4868845;29;20068;-75
2023/12/04 04:24:32;;;;;;;7.10;5.95;;;;;;;-2.56;50.53;94410.00;4870930;29;20068;-76
2023/12/04 04:26:58;;;;;;;9.20;7.07;;;;;;;-2.43;50.01;94428.88;4868297;29;20041;-77
2023/12/04 04:29:23;;;;;;;9.77;6.40;;;;;;;-2.66;49.88;94430.53;4871844;29;20503;-80
2023/12/04 04:31:48;;;;;;;12.32;7.20;;;;;;;-2.47;50.09;94439.94;4867474;29;20056;-79
2023/12/04 04:34:14;;;;;;;8.52;5.53;;;;;;;-2.61;50.66;94441.09;4869263;29;20101;-80
2023/12/04 04:36:39;;;;;;;8.93;6.32;;;;;;;-2.87;50.66;94432.53;4867998;29;20036;-78
2023/12/04 04:39:06;;;;;;;10.55;7.25;;;;;;;-2.74;50.32;94442.84;4867351;29;20776;-78
2023/12/04 04:41:32;;;;;;;9.55;6.65;;;;;;;-2.68;50.56;94441.16;4867033;29;20041;-77
2023/12/04 04:43:57;;;;;;;14.70;9.15;;;;;;;-2.81;51.18;94426.47;4867100;29;20154;-78
2023/12/04 04:46:25;;;;;;;12.23;8.35;;;;;;;-2.70;51.67;94453.63;4870336;29;20040;-78
2023/12/04 04:48:50;;;;;;;11.73;8.68;;;;;;;-2.71;50.99;94458.03;4868451;29;20043;-77
2023/12/04 04:51:16;;;;;;;8.38;6.70;;;;;;;-2.61;50.33;94441.91;4868440;29;20033;-79
2023/12/04 04:53:41;;;;;;;10.38;6.90;;;;;;;-2.62;50.50;94457.72;4870048;29;20069;-79
2023/12/04 04:56:08;;;;;;;10.85;7.43;;;;;;;-2.79;51.34;94450.50;4867190;29;20582;-78
2023/12/04 04:58:33;;;;;;;10.48;6.47;;;;;;;-2.59;50.57;94459.94;4868711;29;20040;-79
2023/12/04 05:00:59;;;;;;;9.77;6.57;;;;;;;-2.70;50.78;94459.63;4880411;29;21051;-80
2023/12/04 05:03:24;;;;;;;15.48;7.70;;;;;;;-2.69;50.65;94452.59;4868731;29;20389;-79
2023/12/04 05:05:50;;;;;;;13.75;6.80;;;;;;;-2.54;49.93;94454.88;4867807;29;21033;-80
2023/12/04 05:08:15;;;;;;;10.57;7.30;;;;;;;-2.54;49.79;94473.09;4867868;29;20413;-76
2023/12/04 05:10:41;;;;;;;8.98;6.65;;;;;;;-2.52;49.23;94460.63;4866388;29;20531;-78
2023/12/04 05:13:07;;;;;;;8.98;5.97;;;;;;;-2.47;48.84;94466.00;4869662;29;20457;-77
2023/12/04 05:15:33;;;;;;;7.63;5.75;;;;;;;-2.60;48.75;94479.97;4867176;29;20417;-76
2023/12/04 05:17:58;;;;;;;8.45;5.75;;;;;;;-2.54;47.87;94478.31;4871063;29;20037;-78
2023/12/04 05:20:24;;;;;;;9.95;6.38;;;;;;;-2.40;48.43;94490.19;4866664;29;20036;-78
2023/12/04 05:22:50;;;;;;;8.82;6.72;;;;;;;-2.50;48.72;94464.63;4870242;29;20499;-78
2023/12/04 05:25:15;;;;;;;10.93;7.38;;;;;;;-2.38;49.25;94488.13;4869349;29;21647;-76
2023/12/04 05:27:41;;;;;;;12.13;8.10;;;;;;;-2.48;48.73;94467.00;4871766;29;20512;-77
2023/12/04 05:30:07;;;;;;;10.15;6.28;;;;;;;-2.26;47.88;94474.19;4863142;29;20049;-76
2023/12/04 05:32:32;;;;;;;6.25;4.90;;;;;;;-2.20;47.06;94487.38;4869318;29;20046;-78
2023/12/04 05:34:58;;;;;;;8.57;6.03;;;;;;;-2.22;46.92;94497.19;4867189;29;20025;-77
2023/12/04 05:37:23;;;;;;;8.18;5.20;;;;;;;-2.15;46.72;94498.75;4866580;29;20120;-78
2023/12/04 05:39:49;;;;;;;8.75;5.22;;;;;;;-2.36;46.39;94496.56;4867185;29;20160;-76
2023/12/04 05:42:14;;;;;;;5.70;4.68;;;;;;;-2.39;46.29;94492.56;4861449;29;20432;-77
2023/12/04 05:44:39;;;;;;;9.32;5.32;;;;;;;-2.52;46.57;94481.47;4862582;29;20499;-76
2023/12/04 05:47:08;;;;;;;10.70;5.45;;;;;;;-2.30;46.46;94490.47;4880535;29;20112;-78
2023/12/04 05:49:34;;;;;;;9.20;5.50;;;;;;;-2.19;47.14;94494.19;4878740;29;20041;-79
2023/12/04 05:51:59;;;;;;;9.50;6.43;;;;;;;-2.17;47.29;94495.53;4876077;29;20128;-76
2023/12/04 05:54:25;;;;;;;10.95;7.82;;;;;;;-2.20;47.33;94469.94;4881280;29;20041;-78
2023/12/04 05:56:50;;;;;;;12.55;8.18;;;;;;;-2.15;48.22;94490.13;4867384;29;20041;-78
2023/12/04 05:59:16;;;;;;;14.05;9.60;;;;;;;-2.21;48.84;94497.00;4865283;29;20041;-79
2023/12/04 06:01:41;;;;;;;15.40;9.52;;;;;;;-2.03;49.17;94509.22;4867886;29;20077;-77
2023/12/04 06:04:07;;;;;;;14.88;10.30;;;;;;;-2.44;50.42;94495.03;4867876;29;20037;-79
2023/12/04 06:06:32;;;;;;;15.25;10.40;;;;;;;-2.40;51.06;94516.22;4868952;29;20057;-80
2023/12/04 06:08:58;;;;;;;18.67;11.07;;;;;;;-2.66;52.27;94516.47;4862037;29;20535;-77
2023/12/04 06:11:23;;;;;;;17.05;11.18;;;;;;;-2.56;52.18;94517.56;4892865;29;20061;-78
2023/12/04 06:13:49;;;;;;;13.48;10.18;;;;;;;-2.51;52.32;94511.72;4879302;29;20080;-77
2023/12/04 06:16:14;;;;;;;13.57;9.43;;;;;;;-2.49;52.16;94507.09;4868346;29;20044;-80
2023/12/04 06:18:40;;;;;;;13.00;9.38;;;;;;;-2.19;51.60;94515.03;4868265;29;20037;-80
2023/12/04 06:21:06;;;;;;;15.25;10.40;;;;;;;-2.27;51.91;94526.50;4868911;29;20041;-76
2023/12/04 06:23:32;;;;;;;15.13;9.43;;;;;;;-2.05;51.54;94532.13;4867881;29;20059;-79
2023/12/04 06:25:58;;;;;;;14.55;9.40;;;;;;;-2.04;51.27;94511.03;4878169;29;20028;-79
2023/12/04 06:28:23;;;;;;;16.75;9.82;;;;;;;-1.90;50.67;94514.28;4865563;29;20059;-80
2023/12/04 06:30:49;;;;;;;13.23;9.27;;;;;;;-1.93;49.54;94507.69;4868306;29;20068;-79
2023/12/04 06:33:22;;;;;;;14.32;8.82;;;;;;;-1.83;49.11;94513.19;4861695;29;20040;-78
2023/12/04 06:35:48;;;;;;;12.65;9.10;;;;;;;-1.95;49.00;94517.53;4866799;29;20056;-79
2023/12/04 06:38:18;;;;;;;10.05;6.85;;;;;;;-2.02;47.84;94535.06;4866062;29;20049;-79
2023/12/04 06:40:44;;;;;;;11.25;7.47;;;;;;;-1.77;47.90;94539.41;4869326;29;20092;-79
2023/12/04 06:43:10;;;;;;;12.40;7.25;;;;;;;-1.89;47.51;94523.69;4867156;29;20040;-79
2023/12/04 06:45:35;;;;;;;13.13;8.93;;;;;;;-2.03;47.20;94543.91;4872133;29;20083;-79
2023/12/04 06:48:01;;;;;;;10.05;6.32;;;;;;;-2.38;47.79;94503.78;4886115;29;20049;-78
2023/12/04 06:50:27;;;;;;;15.68;8.45;;;;;;;-2.02;48.32;94555.94;4866817;29;20540;-78
2023/12/04 06:52:52;;;;;;;12.18;7.75;;;;;;;-2.07;48.43;94542.75;4873679;29;20538;-78
2023/12/04 06:55:18;;;;;;;12.82;8.73;;;;;;;-2.01;48.70;94526.25;4874640;29;20080;-77
2023/12/04 06:57:44;;;;;;;13.15;8.18;;;;;;;-1.79;48.04;94559.69;4879013;29;20073;-79
2023/12/04 07:00:14;;;;;;;15.82;9.20;;;;;;;-1.82;49.23;94555.72;4881956;29;20123;-78
2023/12/04 07:02:39;;;;;;;10.00;7.25;;;;;;;-1.99;48.23;94534.63;4892837;29;20103;-78
2023/12/04 07:05:11;;;;;;;9.18;6.50;;;;;;;-1.94;48.37;94560.84;4871372;29;20044;-77
2023/12/04 07:07:36;;;;;;;8.98;6.35;;;;;;;-2.07;48.60;94558.38;4865889;29;20025;-78
2023/12/04 07:10:06;;;;;;;8.80;5.82;;;;;;;-2.06;48.72;94554.78;4869946;29;20041;-78
2023/12/04 07:12:32;;;;;;;7.53;6.22;;;;;;;-2.29;48.45;94512.91;4868399;29;20105;-78
2023/12/04 07:14:57;;;;;;;10.85;7.07;;;;;;;-2.04;48.22;94563.16;4863351;29;20048;-78
2023/12/04 07:17:23;;;;;;;9.52;6.40;;;;;;;-1.90;48.16;94564.59;4867758;29;20041;-77
2023/12/04 07:19:49;;;;;;;12.50;8.02;;;;;;;-1.80;48.31;94565.94;4864236;29;20032;-77
2023/12/04 07:22:14;;;;;;;10.60;7.07;;;;;;;-2.20;49.59;94568.16;4858958;29;20643;-78
2023/12/04 07:24:40;;;;;;;9.57;6.80;;;;;;;-2.16;48.61;94554.47;4861258;29;20105;-77
2023/12/04 07:27:09;;;;;;;11.30;7.18;;;;;;;-1.94;49.25;94563.44;4858495;29;20084;-75
2023/12/04 07:29:34;;;;;;;11.68;7.43;;;;;;;-2.07;49.37;94573.22;4858828;29;20468;-78
2023/12/04 07:32:00;;;;;;;9.95;7.13;;;;;;;-2.05;48.74;94563.38;4857067;29;20055;-77
2023/12/04 07:34:26;;;;;;;9.43;6.75;;;;;;;-2.28;49.63;94545.75;4858422;29;20813;-77
2023/12/04 07:36:52;;;;;;;9.95;6.55;;;;;;;-1.98;49.09;94567.50;4858787;29;20041;-76
2023/12/04 07:39:17;;;;;;;11.88;7.15;;;;;;;-2.05;49.66;94579.84;4859307;29;20747;-78
2023/12/04 07:41:43;;;;;;;10.23;7.30;;;;;;;-1.95;49.90;94581.94;4856606;29;20051;-76
2023/12/04 07:44:08;;;;;;;9.70;6.97;;;;;;;-1.87;50.00;94579.84;4859229;29;20091;-78
2023/12/04 07:46:34;;;;;;;12.38;7.53;;;;;;;-1.86;49.82;94565.78;4858673;29;20344;-77
2023/12/04 07:48:59;;;;;;;9.20;6.35;;;;;;;-1.67;48.42;94563.97;4858718;29;20049;-77
2023/12/04 07:51:25;;;;;;;9.05;6.63;;;;;;;-1.65;48.80;94566.34;4858176;29;20265;-77
2023/12/04 07:53:50;;;;;;;7.70;6.13;;;;;;;-1.74;48.10;94570.25;4851445;29;20268;-74
2023/12/04 07:56:16;;;;;;;11.20;6.63;;;;;;;-1.60;47.99;94563.88;4859979;29;20085;-77
2023/12/04 07:58:41;;;;;;;11.50;7.28;;;;;;;-1.60;47.83;94556.84;4862210;29;20575;-76
2023/12/04 08:01:07;;;;;;;13.55;8.57;;;;;;;-1.53;48.89;94581.03;4816855;29;1199120;-76
2023/12/04 08:03:32;;;;;;;10.45;7.43;;;;;;;-1.69;48.89;94565.97;4860927;29;20076;-78
2023/12/04 08:05:58;;;;;;;17.92;8.75;;;;;;;-1.56;49.13;94588.53;4858035;29;20037;-78
2023/12/04 08:08:27;;;;;;;14.02;8.50;;;;;;;-1.48;49.20;94594.22;4860324;29;20052;-77
2023/12/04 08:10:53;;;;;;;12.60;8.57;;;;;;;-1.32;49.12;94595.44;4860367;29;20213;-78
2023/12/04 08:13:18;;;;;;;11.15;7.07;;;;;;;-1.42;48.67;94582.13;4860146;29;20053;-78
2023/12/04 08:15:44;;;;;;;10.13;6.50;;;;;;;-1.31;48.34;94594.41;4857358;29;20128;-78
2023/12/04 08:18:10;;;;;;;10.50;6.22;;;;;;;-1.47;48.27;94600.25;4878343;29;20036;-78
2023/12/04 08:20:35;;;;;;;9.63;6.65;;;;;;;-1.25;48.31;94593.53;4860308;29;20040;-78
2023/12/04 08:23:01;;;;;;;9.45;7.00;;;;;;;-1.36;48.21;94583.84;4860759;29;20091;-79
2023/12/04 08:25:26;;;;;;;9.63;6.88;;;;;;;-1.41;47.75;94579.28;4850453;29;20099;-78
2023/12/04 08:27:52;;;;;;;8.02;6.00;;;;;;;-1.56;48.03;94572.88;4857737;29;20541;-76
2023/12/04 08:30:18;;;;;;;9.70;6.78;;;;;;;-1.54;48.46;94578.66;4858892;29;20327;-78
2023/12/04 08:32:44;;;;;;;10.02;7.28;;;;;;;-1.65;48.67;94553.28;4860695;29;20411;-79
2023/12/04 08:35:09;;;;;;;10.02;6.65;;;;;;;-1.32;48.75;94587.63;4851313;29;20047;-78
2023/12/04 08:37:35;;;;;;;9.30;6.75;;;;;;;-1.62;48.49;94539.84;4859295;29;20033;-78
2023/12/04 08:40:02;;;;;;;10.98;6.38;;;;;;;-1.38;47.51;94593.72;4857849;29;20040;-79
2023/12/04 08:42:30;;;;;;;6.45;5.72;;;;;;;-1.33;46.23;94586.03;4858651;29;20048;-78
2023/12/04 08:44:55;;;;;;;7.25;5.90;;;;;;;-1.58;47.12;94546.19;4860172;29;20453;-79
2023/12/04 08:47:21;;;;;;;8.70;5.43;;;;;;;-1.39;46.45;94560.81;4860080;29;20033;-79
2023/12/04 08:49:46;;;;;;;6.35;5.07;;;;;;;-1.04;45.92;94585.22;4854787;29;20131;-77
2023/12/04 08:52:12;;;;;;;10.27;6.60;;;;;;;-0.96;44.97;94577.06;4872727;29;20273;-78
2023/12/04 08:54:43;;;;;;;8.13;6.20;;;;;;;-1.02;45.29;94583.19;4857945;29;20569;-78
2023/12/04 08:57:09;;;;;;;6.72;5.22;;;;;;;-0.84;44.86;94578.94;4857015;29;20340;-78
2023/12/04 08:59:35;;;;;;;14.77;6.95;;;;;;;-0.87;44.60;94590.59;4855092;29;20037;-78
2023/12/04 09:02:03;;;;;;;9.13;5.55;;;;;;;-0.97;45.41;94570.25;4871496;29;20144;-78
2023/12/04 09:04:32;;;;;;;6.63;4.72;;;;;;;-1.11;45.43;94558.41;4860099;29;20097;-77
2023/12/04 09:06:58;;;;;;;8.50;5.55;;;;;;;-0.97;45.32;94554.59;4858163;29;20056;-78
2023/12/04 09:09:24;;;;;;;8.73;5.75;;;;;;;-0.88;44.62;94551.66;4856450;29;20212;-79
2023/12/04 09:11:49;;;;;;;7.68;4.72;;;;;;;-0.97;44.14;94554.59;4871557;29;20045;-79
2023/12/04 09:14:15;;;;;;;10.32;5.63;;;;;;;-0.65;44.06;94556.94;4855610;29;20045;-76
2023/12/04 09:16:41;;;;;;;9.05;5.90;;;;;;;-0.57;44.54;94553.97;4858618;29;20439;-78
2023/12/04 09:19:07;;;;;;;6.90;5.30;;;;;;;-0.76;43.51;94537.59;4857960;29;20568;-79
2023/12/04 09:21:33;;;;;;;9.00;6.20;;;;;;;-0.53;44.00;94561.13;4859657;29;20588;-77
2023/12/04 09:23:59;;;;;;;7.70;5.40;;;;;;;-0.85;44.25;94559.03;4856718;29;20033;-78
2023/12/04 09:26:24;;;;;;;9.38;6.00;;;;;;;-0.81;44.02;94554.97;4859018;29;20060;-77
2023/12/04 09:28:50;;;;;;;8.73;5.55;;;;;;;-0.49;44.08;94553.66;4873370;29;20028;-79
2023/12/04 09:31:15;;;;;;;8.73;5.13;;;;;;;-0.43;43.00;94551.97;4857760;29;20048;-79
2023/12/04 09:33:40;;;;;;;10.25;5.75;;;;;;;-0.66;43.85;94550.91;4858861;29;20574;-78
2023/12/04 09:36:06;;;;;;;11.73;5.93;;;;;;;-0.67;43.46;94517.16;4856769;29;20045;-76
2023/12/04 09:38:34;;;;;;;10.40;5.70;;;;;;;-0.44;43.92;94545.94;4869544;29;20045;-75
2023/12/04 09:41:02;;;;;;;9.18;5.95;;;;;;;-0.15;44.07;94539.81;4860674;29;20389;-76
2023/12/04 09:43:33;;;;;;;8.48;6.20;;;;;;;-0.30;43.55;94554.34;4860484;29;20067;-78
2023/12/04 09:45:59;;;;;;;12.60;5.68;;;;;;;-0.35;42.82;94538.56;4858452;29;20444;-79
2023/12/04 09:48:26;;;;;;;10.30;5.75;;;;;;;-0.30;43.32;94560.38;4853738;29;20529;-77
2023/12/04 09:50:52;;;;;;;14.38;7.63;;;;;;;-0.28;43.37;94547.06;4860048;29;20069;-78
2023/12/04 09:53:22;;;;;;;12.25;6.55;;;;;;;-0.27;44.29;94544.22;4860591;29;20152;-76
2023/12/04 09:55:51;;;;;;;15.30;7.82;;;;;;;-0.40;45.18;94546.28;4853437;29;20025;-76
2023/12/04 09:58:19;;;;;;;8.10;6.05;;;;;;;-0.78;45.80;94541.47;4857030;29;20029;-76
2023/12/04 10:00:46;;;;;;;14.82;7.45;;;;;;;-1.18;46.83;94521.16;4855076;29;20166;-77
2023/12/04 10:03:12;;;;;;;10.13;6.03;;;;;;;-0.77;46.56;94507.28;4859630;29;20044;-79
2023/12/04 10:05:43;;;;;;;10.85;5.90;;;;;;;-0.37;45.92;94533.53;4853368;29;20107;-77
2023/12/04 10:08:09;;;;;;;14.68;7.88;;;;;;;-0.36;46.98;94522.06;4856951;29;20089;-78
2023/12/04 10:10:34;;;;;;;14.63;7.63;;;;;;;-0.12;44.86;94526.25;4860600;29;20033;-79
2023/12/04 10:13:00;;;;;;;9.95;6.10;;;;;;;-0.19;45.03;94509.88;4857720;29;20108;-77
2023/12/04 10:15:37;;;;;;;7.45;5.38;;;;;;;-0.07;44.74;94533.41;4848004;29;20049;-76
2023/12/04 10:18:30;;;;;;;13.10;6.20;;;;;;;-0.58;45.96;94521.06;4858175;29;20041;-77
2023/12/04 10:20:57;;;;;;;10.52;6.60;;;;;;;-0.20;45.34;94534.47;4873646;29;20108;-78
2023/12/04 10:23:39;;;;;;;10.60;6.57;;;;;;;-0.10;44.91;94533.88;4861070;29;20434;-75
2023/12/04 10:26:07;;;;;;;8.93;6.22;;;;;;;-0.10;43.86;94505.91;4876416;29;20426;-78
2023/12/04 10:28:33;;;;;;;8.00;5.43;;;;;;;0.37;43.74;94524.13;4861050;29;20131;-79
2023/12/04 10:31:01;;;;;;;7.78;5.55;;;;;;;0.45;43.48;94521.13;4861411;29;20423;-75
2023/12/04 10:33:30;;;;;;;12.57;6.88;;;;;;;0.54;44.10;94516.34;4864547;29;20048;-79
2023/12/04 10:35:56;;;;;;;9.30;6.22;;;;;;;0.52;43.65;94497.44;4862058;29;20071;-76
2023/12/04 10:38:21;;;;;;;11.98;6.82;;;;;;;0.51;43.18;94485.38;4861153;29;20484;-78
2023/12/04 10:40:47;;;;;;;8.75;6.07;;;;;;;0.66;43.03;94483.84;4860359;29;20029;-77
2023/12/04 10:43:17;;;;;;;9.77;6.85;;;;;;;0.99;43.18;94495.38;4861984;29;20115;-79
2023/12/04 10:45:45;;;;;;;9.50;7.03;;;;;;;1.09;43.11;94485.06;4860961;29;20033;-78
2023/12/04 10:48:12;;;;;;;9.55;6.28;;;;;;;0.88;43.14;94463.00;4860658;29;20083;-76
2023/12/04 10:50:39;;;;;;;12.05;6.47;;;;;;;1.17;43.24;94500.41;4859811;29;20052;-78
2023/12/04 10:53:11;;;;;;;8.30;6.75;;;;;;;0.89;42.93;94490.00;4862259;29;20116;-78
2023/12/04 10:55:39;;;;;;;10.50;7.32;;;;;;;1.24;43.08;94508.91;4875572;29;20374;-79
2023/12/04 10:58:09;;;;;;;8.60;6.50;;;;;;;1.38;43.20;94488.41;4861756;29;20144;-78
2023/12/04 11:00:46;;;;;;;10.02;6.75;;;;;;;1.63;41.87;94507.13;4858572;29;20472;-76
2023/12/04 11:03:24;;;;;;;8.30;6.75;;;;;;;1.72;42.02;94505.69;4875432;29;20040;-78
2023/12/04 11:05:59;;;;;;;10.82;6.55;;;;;;;1.76;42.15;94500.78;4858845;29;20103;-76
2023/12/04 11:08:28;;;;;;;9.05;6.78;;;;;;;1.56;41.92;94486.34;4874266;29;20041;-78
2023/12/04 11:11:07;;;;;;;8.13;6.72;;;;;;;1.04;42.85;94441.25;4858968;29;20041;-78
2023/12/04 11:13:37;;;;;;;8.38;6.38;;;;;;;1.22;42.77;94490.81;4875619;29;20029;-79
2023/12/04 11:16:08;;;;;;;11.43;8.02;;;;;;;0.84;43.15;94482.06;4860329;29;20036;-78
2023/12/04 11:18:39;;;;;;;9.05;6.35;;;;;;;0.37;44.29;94497.94;4860570;29;20501;-77
2023/12/04 11:21:09;;;;;;;9.55;7.55;;;;;;;0.28;44.15;94492.28;4875546;29;20587;-79
2023/12/04 11:23:35;;;;;;;9.50;6.30;;;;;;;0.50;44.41;94489.00;4858571;29;20501;-77
2023/12/04 11:26:03;;;;;;;12.50;6.63;;;;;;;0.40;43.96;94439.13;4860641;29;20630;-78